Aston, Pennsylvania
Current Conditions -  °F | °C
As of 2:54 PM on Saturday 20 Dec 2014 (Local Time) from KPHL Reporting Station
Overcast Overcast  
Wind Chill: 35°   Ceiling: 3200
Heat Index: 35°   Visibility: 10mi
Dew Point: 21°   Wind: 3mph
Humidity: 57%   Direction: 20°NNE
Pressure: 30.27"   Gusts: NA
Location:  39.88°N, 75.45°W
Report Text: KPHL 201954Z 02003KT 10SM OVC032 02/M06 A3027 RMK AO2 SLP250 T00171061
Loading
Personal Weather Stations






























Interactive Weather Map New forecast layout! Learn more

10-Day Weather Forecast

Advertisements
Track Severe Weather on mobile